Terminal Aerodrome Forecast
Issued by NWS

Home | Current Version | Previous Version | Text Only | Print | Product List | Glossary On
Versions: 1 2 3 4 5 6 7 8 9 10 11 12 13 14 15 16 17 18 19 20 21 22
000
FTUS43 KOAX 132320
TAFCDR
TAF
KCDR 132320Z 1400/1424 13012KT P6SM VCTS SCT080CB
     FM140200 03009KT P6SM BKN080
     FM140700 03011KT 4SM BR OVC015
     FM141500 09008KT P6SM BKN035
     FM141800 12008KT P6SM BKN080=

USA.gov is the U.S. government's official web portal to all federal, state and local government web resources and services.